Time;durP1;ratioP1;P1;durP2;ratioP2;P2;SDS_P1;SDS_P2;PMS_P1;PMS_P2;Temp;Humidity;BMP_temperature;BMP_pressure;BME280_temperature;BME280_humidity;BME280_pressure;Samples;Min_cycle;Max_cycle;Signal;HPM_P1;HPM_P2
2020/12/11 00:01:28;;;;;;;;;;;;;;;6.24;99.52;92192.81;5073028;28;19929;-94
2020/12/11 00:03:54;;;;;;;;;;;;;;;6.25;99.50;92197.72;5072865;28;19971;-94
2020/12/11 00:06:21;;;;;;;;;;;;;;;6.24;99.76;92193.63;5072890;28;20015;-94
2020/12/11 00:08:48;;;;;;;;;;;;;;;6.25;100.00;92204.59;5072684;28;19924;-94
2020/12/11 00:11:14;;;;;;;;;;;;;;;6.21;99.60;92201.66;5072572;28;19924;-94
2020/12/11 00:13:40;;;;;;;;;;;;;;;6.22;99.89;92205.81;5072470;28;19928;-94
2020/12/11 00:16:06;;;;;;;;;;;;;;;6.17;98.62;92207.41;5072548;28;19925;-93
2020/12/11 00:18:33;;;;;;;;;;;;;;;6.11;99.01;92204.69;5071956;28;20430;-95
2020/12/11 00:20:59;;;;;;;;;;;;;;;6.07;99.08;92203.53;5053238;28;19968;-94
2020/12/11 00:23:26;;;;;;;;;;;;;;;6.07;99.16;92203.53;5052303;28;19925;-94
2020/12/11 00:25:58;;;;;;;;;;;;;;;6.02;99.58;92205.91;5052083;28;19928;-94
2020/12/11 00:28:24;;;;;;;;;;;;;;;6.01;99.75;92209.41;5057649;28;19924;-95
2020/12/11 00:30:50;;;;;;;;;;;;;;;5.98;100.00;92213.16;5072203;28;20378;-94
2020/12/11 00:33:16;;;;;;;;;;;;;;;5.97;99.74;92224.34;5058818;28;20744;-94
2020/12/11 00:35:42;;;;;;;;;;;;;;;5.92;99.52;92221.63;5052589;28;20019;-94
2020/12/11 00:38:09;;;;;;;;;;;;;;;5.86;99.74;92212.25;5052217;28;19972;-94
2020/12/11 00:40:36;;;;;;;;;;;;;;;5.80;99.86;92216.44;5052029;28;20334;-95
2020/12/11 00:43:02;;;;;;;;;;;;;;;5.75;100.00;92216.25;5052129;28;19925;-93
2020/12/11 00:45:28;;;;;;;;;;;;;;;5.69;100.00;92217.84;5051938;28;19935;-93
2020/12/11 00:47:54;;;;;;;;;;;;;;;5.62;100.00;92212.78;5051894;28;19925;-95
2020/12/11 00:50:20;;;;;;;;;;;;;;;5.61;100.00;92208.66;5051823;28;19926;-93
2020/12/11 00:52:46;;;;;;;;;;;;;;;5.61;99.81;92218.84;5051170;28;19929;-93
2020/12/11 00:55:13;;;;;;;;;;;;;;;5.57;99.72;92215.19;5051662;28;20035;-95
2020/12/11 00:57:40;;;;;;;;;;;;;;;5.56;99.95;92221.22;5051764;28;19967;-93
2020/12/11 01:00:06;;;;;;;;;;;;;;;5.51;99.69;92217.75;5051691;28;19968;-94
2020/12/11 01:02:32;;;;;;;;;;;;;;;5.48;99.73;92224.78;5051649;28;19924;-93
2020/12/11 01:04:58;;;;;;;;;;;;;;;5.44;99.77;92223.66;5051618;28;19929;-94
2020/12/11 01:07:25;;;;;;;;;;;;;;;5.37;100.00;92225.41;5051606;28;20061;-94
2020/12/11 01:09:51;;;;;;;;;;;;;;;5.28;100.00;92219.78;5051853;28;19964;-93
2020/12/11 01:12:17;;;;;;;;;;;;;;;5.22;100.00;92221.38;5051942;28;19971;-93
2020/12/11 01:14:44;;;;;;;;;;;;;;;5.22;100.00;92221.38;5051501;28;19947;-93
2020/12/11 01:17:10;;;;;;;;;;;;;;;5.20;100.00;92217.47;5051571;28;19936;-92
2020/12/11 01:19:36;;;;;;;;;;;;;;;5.16;100.00;92213.75;5051529;28;19925;-94
2020/12/11 01:22:04;;;;;;;;;;;;;;;5.11;100.00;92216.91;5051274;28;19925;-93
2020/12/11 01:24:30;;;;;;;;;;;;;;;5.07;100.00;92213.19;5051436;28;19924;-94
2020/12/11 01:26:56;;;;;;;;;;;;;;;5.08;100.00;92214.75;5051269;28;20386;-94
2020/12/11 01:29:22;;;;;;;;;;;;;;;5.14;100.00;92219.03;5051185;28;19929;-95
2020/12/11 01:31:49;;;;;;;;;;;;;;;5.15;100.00;92213.00;5051088;28;19932;-94
2020/12/11 01:34:16;;;;;;;;;;;;;;;5.17;100.00;92205.91;5051083;28;19972;-93
2020/12/11 01:36:42;;;;;;;;;;;;;;;5.17;100.00;92210.22;5051248;28;19971;-95
2020/12/11 01:39:08;;;;;;;;;;;;;;;5.14;100.00;92210.63;5051538;28;19972;-93
2020/12/11 01:41:34;;;;;;;;;;;;;;;5.16;100.00;92209.44;5051320;28;20403;-93
2020/12/11 01:44:07;;;;;;;;;;;;;;;5.15;100.00;92213.00;5051207;28;19931;-94
2020/12/11 01:46:36;;;;;;;;;;;;;;;5.12;100.00;92212.59;5051164;28;19929;-93
2020/12/11 01:49:03;;;;;;;;;;;;;;;5.08;100.00;92207.91;5051323;28;20418;-95
2020/12/11 01:51:30;;;;;;;;;;;;;;;5.04;100.00;92205.94;5051030;28;19959;-94
2020/12/11 01:53:56;;;;;;;;;;;;;;;5.02;100.00;92205.38;5051147;28;19976;-95
2020/12/11 01:56:24;;;;;;;;;;;;;;;5.00;100.00;92215.75;5051072;28;19924;-93
2020/12/11 01:58:53;;;;;;;;;;;;;;;4.98;100.00;92214.38;5051177;28;19924;-93
2020/12/11 02:01:21;;;;;;;;;;;;;;;4.95;100.00;92215.56;5051004;28;19935;-93
2020/12/11 02:03:48;;;;;;;;;;;;;;;4.94;100.00;92217.34;5051168;28;19925;-92
2020/12/11 02:06:15;;;;;;;;;;;;;;;4.93;100.00;92213.25;5051374;28;20374;-93
2020/12/11 02:08:41;;;;;;;;;;;;;;;4.91;100.00;92222.06;5051316;28;20871;-93
2020/12/11 02:11:16;;;;;;;;;;;;;;;4.95;100.00;92208.72;5051304;28;19968;-95
2020/12/11 02:13:42;;;;;;;;;;;;;;;4.97;100.00;92216.16;5050905;28;19925;-93
2020/12/11 02:16:08;;;;;;;;;;;;;;;4.94;100.00;92209.72;5050911;28;19928;-93
2020/12/11 02:18:37;;;;;;;;;;;;;;;4.95;100.00;92210.47;5051291;28;19931;-94
2020/12/11 02:21:03;;;;;;;;;;;;;;;4.98;100.00;92206.75;5050845;28;19931;-92
2020/12/11 02:23:30;;;;;;;;;;;;;;;5.03;100.00;92212.03;5050988;28;19931;-94
2020/12/11 02:25:56;;;;;;;;;;;;;;;5.02;100.00;92213.00;5051022;28;19931;-92
2020/12/11 02:28:22;;;;;;;;;;;;;;;5.03;100.00;92209.47;5050722;28;19925;-94
2020/12/11 02:30:48;;;;;;;;;;;;;;;5.03;100.00;92212.03;5050788;28;20028;-93
2020/12/11 02:33:15;;;;;;;;;;;;;;;5.06;100.00;92209.84;5051113;28;19929;-93
2020/12/11 02:35:41;;;;;;;;;;;;;;;5.05;100.00;92210.06;5050829;28;20406;-93
2020/12/11 02:38:09;;;;;;;;;;;;;;;5.01;100.00;92216.53;5050964;28;19929;-92
2020/12/11 02:40:39;;;;;;;;;;;;;;;4.97;100.00;92217.91;5052394;28;19929;-93
2020/12/11 02:43:05;;;;;;;;;;;;;;;4.92;100.00;92221.81;5054314;28;19935;-93
2020/12/11 02:45:34;;;;;;;;;;;;;;;4.91;100.00;92222.06;5054239;28;19979;-93
2020/12/11 02:48:00;;;;;;;;;;;;;;;4.89;100.00;92214.59;5054714;28;20359;-93
2020/12/11 02:50:26;;;;;;;;;;;;;;;4.91;100.00;92219.50;5054183;28;19924;-93
2020/12/11 02:52:53;;;;;;;;;;;;;;;4.91;100.00;92217.72;5054434;28;20374;-92
2020/12/11 02:55:19;;;;;;;;;;;;;;;4.95;100.00;92213.00;5054223;28;19975;-93
2020/12/11 02:57:46;;;;;;;;;;;;;;;4.98;100.00;92220.25;5054113;28;20291;-92
2020/12/11 03:00:12;;;;;;;;;;;;;;;5.01;100.00;92217.34;5053995;28;20268;-92
2020/12/11 03:02:38;;;;;;;;;;;;;;;5.00;100.00;92217.53;5053889;28;19947;-94
2020/12/11 03:05:04;;;;;;;;;;;;;;;5.03;100.00;92224.75;5053927;28;19925;-93
2020/12/11 03:07:30;;;;;;;;;;;;;;;5.04;100.00;92223.75;5054089;28;19935;-92
2020/12/11 03:09:56;;;;;;;;;;;;;;;5.08;100.00;92227.47;5054248;28;19925;-92
2020/12/11 03:12:23;;;;;;;;;;;;;;;5.11;100.00;92226.28;5054079;28;19968;-92
2020/12/11 03:14:50;;;;;;;;;;;;;;;5.12;100.00;92227.84;5053718;28;19983;-92
2020/12/11 03:17:16;;;;;;;;;;;;;;;5.12;100.00;92225.31;5053886;28;19974;-92
2020/12/11 03:19:42;;;;;;;;;;;;;;;5.16;100.00;92226.47;5054040;28;20409;-93
2020/12/11 03:22:08;;;;;;;;;;;;;;;5.19;100.00;92226.09;5053932;28;20399;-93
2020/12/11 03:24:34;;;;;;;;;;;;;;;5.18;100.00;92229.59;5054270;28;19972;-93
2020/12/11 03:27:00;;;;;;;;;;;;;;;5.19;100.00;92239.59;5053424;28;19968;-92
2020/12/11 03:29:26;;;;;;;;;;;;;;;5.16;100.00;92234.13;5053423;28;19972;-93
2020/12/11 03:31:54;;;;;;;;;;;;;;;5.18;100.00;92239.78;5053339;28;19975;-92
2020/12/11 03:34:20;;;;;;;;;;;;;;;5.14;100.00;92236.09;5053453;28;19976;-93
2020/12/11 03:36:48;;;;;;;;;;;;;;;5.13;100.00;92242.94;5053415;28;19968;-93
2020/12/11 03:39:14;;;;;;;;;;;;;;;5.16;100.00;92247.63;5053369;28;19956;-93
2020/12/11 03:41:40;;;;;;;;;;;;;;;5.17;100.00;92246.66;5053769;28;19925;-93
2020/12/11 03:44:06;;;;;;;;;;;;;;;5.17;100.00;92253.50;5053130;28;19929;-93
2020/12/11 03:46:33;;;;;;;;;;;;;;;5.17;100.00;92251.75;5053446;28;20062;-92
2020/12/11 03:49:00;;;;;;;;;;;;;;;5.21;100.00;92257.22;5053561;28;20487;-93
2020/12/11 03:51:26;;;;;;;;;;;;;;;5.21;100.00;92258.00;5053486;28;19925;-92
2020/12/11 03:53:52;;;;;;;;;;;;;;;5.24;100.00;92259.38;5053488;28;19940;-92
2020/12/11 03:56:19;;;;;;;;;;;;;;;5.27;100.00;92265.84;5053173;28;19925;-94
2020/12/11 03:58:45;;;;;;;;;;;;;;;5.32;100.00;92266.00;5052973;28;19964;-92
2020/12/11 04:01:12;;;;;;;;;;;;;;;5.34;100.00;92286.97;5052852;28;19929;-92
2020/12/11 04:03:38;;;;;;;;;;;;;;;5.30;100.00;92289.13;5052846;28;19925;-92
2020/12/11 04:06:09;;;;;;;;;;;;;;;5.33;100.00;92298.13;5052807;28;19929;-91
2020/12/11 04:08:35;;;;;;;;;;;;;;;5.30;100.00;92294.22;5052764;28;19924;-93
2020/12/11 04:11:05;;;;;;;;;;;;;;;5.29;100.00;92294.41;5052937;28;19925;-93
2020/12/11 04:13:31;;;;;;;;;;;;;;;5.31;100.00;92290.69;5052904;28;19932;-92
2020/12/11 04:15:58;;;;;;;;;;;;;;;5.36;100.00;92297.72;5052617;28;19980;-93
2020/12/11 04:18:24;;;;;;;;;;;;;;;5.37;100.00;92296.72;5052586;28;19931;-93
2020/12/11 04:20:50;;;;;;;;;;;;;;;5.37;100.00;92296.72;5052526;28;19935;-92
2020/12/11 04:23:17;;;;;;;;;;;;;;;5.35;100.00;92294.41;5052464;28;19933;-92
2020/12/11 04:25:43;;;;;;;;;;;;;;;5.33;100.00;92293.03;5052473;28;19929;-91
2020/12/11 04:28:09;;;;;;;;;;;;;;;5.31;100.00;92302.63;5052604;28;19975;-92
2020/12/11 04:30:35;;;;;;;;;;;;;;;5.30;100.00;92301.06;5052546;28;19924;-93
2020/12/11 04:33:01;;;;;;;;;;;;;;;5.26;100.00;92300.69;5052794;28;19925;-93
2020/12/11 04:35:28;;;;;;;;;;;;;;;5.26;100.00;92298.13;5052165;28;19972;-93
2020/12/11 04:37:54;;;;;;;;;;;;;;;5.27;100.00;92296.38;5052628;28;19925;-95
2020/12/11 04:40:21;;;;;;;;;;;;;;;5.26;100.00;92284.63;5053594;28;19967;-94
2020/12/11 04:42:47;;;;;;;;;;;;;;;5.19;100.00;92290.50;5053035;28;20037;-93
2020/12/11 04:45:14;;;;;;;;;;;;;;;5.12;100.00;92294.84;5052271;28;19955;-95
2020/12/11 04:47:41;;;;;;;;;;;;;;;5.14;100.00;92287.00;5052239;28;19931;-93
2020/12/11 04:50:07;;;;;;;;;;;;;;;5.08;100.00;92286.81;5052076;28;19929;-92
2020/12/11 04:52:36;;;;;;;;;;;;;;;5.12;100.00;92281.31;5052150;28;20379;-93
2020/12/11 04:55:03;;;;;;;;;;;;;;;5.01;100.00;92275.06;5052225;28;20357;-91
2020/12/11 04:57:32;;;;;;;;;;;;;;;4.98;100.00;92268.63;5051839;28;21080;-92
2020/12/11 04:59:58;;;;;;;;;;;;;;;4.91;100.00;92263.53;5051754;28;19931;-92
2020/12/11 05:02:26;;;;;;;;;;;;;;;4.94;100.00;92275.88;5051479;28;19947;-90
2020/12/11 05:04:52;;;;;;;;;;;;;;;5.03;100.00;92278.19;5051546;28;19929;-94
2020/12/11 05:07:19;;;;;;;;;;;;;;;5.07;100.00;92281.91;5051559;28;19935;-92
2020/12/11 05:09:54;;;;;;;;;;;;;;;5.14;100.00;92281.91;5051922;28;19925;-92
2020/12/11 05:12:20;;;;;;;;;;;;;;;5.20;100.00;92286.22;5051882;28;19931;-92
2020/12/11 05:14:48;;;;;;;;;;;;;;;5.22;100.00;92287.56;5051545;28;19983;-91
2020/12/11 05:17:14;;;;;;;;;;;;;;;5.18;100.00;92294.03;5051515;28;19982;-92
2020/12/11 05:19:51;;;;;;;;;;;;;;;5.16;100.00;92300.31;5051365;28;20379;-93
2020/12/11 05:22:18;;;;;;;;;;;;;;;5.20;100.00;92298.94;5051696;28;19936;-92
2020/12/11 05:24:44;;;;;;;;;;;;;;;5.26;100.00;92304.97;5051346;28;19954;-93
2020/12/11 05:27:27;;;;;;;;;;;;;;;5.28;100.00;92308.91;5051514;28;19951;-93
2020/12/11 05:29:54;;;;;;;;;;;;;;;5.31;100.00;92313.59;5051248;28;20383;-92
2020/12/11 05:32:34;;;;;;;;;;;;;;;5.31;100.00;92316.16;5051146;28;19931;-94
2020/12/11 05:35:00;;;;;;;;;;;;;;;5.28;100.00;92324.16;5051401;28;19964;-95
2020/12/11 05:37:26;;;;;;;;;;;;;;;5.32;100.00;92322.03;5051199;28;20290;-94
2020/12/11 05:39:52;;;;;;;;;;;;;;;5.36;100.00;92323.19;5051376;28;19976;-93
2020/12/11 05:42:18;;;;;;;;;;;;;;;5.37;100.00;92326.53;5051180;28;19925;-94
2020/12/11 05:44:45;;;;;;;;;;;;;;;5.42;100.00;92319.06;5051191;28;19932;-92
2020/12/11 05:47:19;;;;;;;;;;;;;;;5.44;100.00;92327.28;5051418;28;20401;-93
2020/12/11 05:49:45;;;;;;;;;;;;;;;5.48;100.00;92336.09;5051203;28;19929;-94
2020/12/11 05:52:12;;;;;;;;;;;;;;;5.46;100.00;92336.28;5051147;28;19924;-94
2020/12/11 05:54:42;;;;;;;;;;;;;;;5.46;100.00;92343.94;5051091;28;20299;-93
2020/12/11 05:57:09;;;;;;;;;;;;;;;5.40;100.00;92342.19;5050823;28;19925;-94
2020/12/11 05:59:35;;;;;;;;;;;;;;;5.42;100.00;92352.19;5050726;28;19972;-93
2020/12/11 06:02:02;;;;;;;;;;;;;;;5.43;100.00;92346.09;5051184;28;19925;-93
2020/12/11 06:04:29;;;;;;;;;;;;;;;5.43;100.00;92356.28;5051174;28;20024;-94
2020/12/11 06:06:57;;;;;;;;;;;;;;;5.44;100.00;92356.09;5051048;28;19971;-94
2020/12/11 06:09:27;;;;;;;;;;;;;;;5.46;100.00;92353.34;5051066;28;19925;-94
2020/12/11 06:11:58;;;;;;;;;;;;;;;5.51;100.00;92357.84;5051041;28;20371;-92
2020/12/11 06:14:31;;;;;;;;;;;;;;;5.57;100.00;92360.38;5051374;28;19952;-92
2020/12/11 06:17:00;;;;;;;;;;;;;;;5.51;100.00;92352.75;5054958;28;20375;-92
2020/12/11 06:19:27;;;;;;;;;;;;;;;5.57;100.00;92349.41;5054889;28;19990;-95
2020/12/11 06:21:54;;;;;;;;;;;;;;;5.58;100.00;92354.28;5054777;28;19925;-92
2020/12/11 06:24:27;;;;;;;;;;;;;;;5.63;100.00;92353.69;5054896;28;19929;-92
2020/12/11 06:26:56;;;;;;;;;;;;;;;5.39;100.00;92357.66;5055470;28;19951;-92
2020/12/11 06:29:25;;;;;;;;;;;;;;;5.36;100.00;92356.28;5054958;28;19928;-92
2020/12/11 06:31:52;;;;;;;;;;;;;;;5.35;100.00;92352.97;5054461;28;19960;-92
2020/12/11 06:34:20;;;;;;;;;;;;;;;5.37;100.00;92352.75;5054603;28;19976;-92
2020/12/11 06:36:47;;;;;;;;;;;;;;;5.31;100.00;92353.56;5054583;28;19924;-92
2020/12/11 06:39:34;;;;;;;;;;;;;;;5.27;100.00;92370.22;5054394;28;19925;-93
2020/12/11 06:42:00;;;;;;;;;;;;;;;5.42;100.00;92367.47;5054503;28;19925;-92
2020/12/11 06:44:31;;;;;;;;;;;;;;;5.53;100.00;92371.16;5054831;28;19975;-93
2020/12/11 06:47:07;;;;;;;;;;;;;;;5.58;100.00;92364.50;5054837;28;20385;-93
2020/12/11 06:49:33;;;;;;;;;;;;;;;5.66;100.00;92373.69;5054551;28;19975;-93
2020/12/11 06:52:09;;;;;;;;;;;;;;;5.47;100.00;92376.06;5054408;28;19925;-92
2020/12/11 06:54:53;;;;;;;;;;;;;;;5.52;100.00;92370.38;5055608;28;19931;-94
2020/12/11 06:57:33;;;;;;;;;;;;;;;5.47;100.00;92380.38;5057581;28;20334;-93
2020/12/11 06:59:59;;;;;;;;;;;;;;;5.50;100.00;92374.09;5057979;28;19925;-93
2020/12/11 07:02:26;;;;;;;;;;;;;;;4.96;100.00;92372.41;5057424;28;19931;-92
2020/12/11 07:04:52;;;;;;;;;;;;;;;4.91;100.00;92379.81;5057741;28;19929;-94
2020/12/11 07:07:19;;;;;;;;;;;;;;;4.92;100.00;92383.94;5057211;28;19925;-93
2020/12/11 07:09:46;;;;;;;;;;;;;;;4.73;100.00;92385.47;5057659;28;19928;-90
2020/12/11 07:12:12;;;;;;;;;;;;;;;4.82;100.00;92379.25;5056916;28;19931;-91
2020/12/11 07:14:39;;;;;;;;;;;;;;;5.11;100.00;92374.72;5056716;28;19925;-91
2020/12/11 07:17:05;;;;;;;;;;;;;;;5.26;100.00;92377.06;5056723;28;19971;-92
2020/12/11 07:19:33;;;;;;;;;;;;;;;5.39;100.00;92381.38;5055117;28;20062;-90
2020/12/11 07:21:59;;;;;;;;;;;;;;;5.50;100.00;92374.09;5055505;28;20458;-91
2020/12/11 07:24:29;;;;;;;;;;;;;;;5.59;100.00;92368.59;5054971;28;19967;-91
2020/12/11 07:26:58;;;;;;;;;;;;;;;5.53;100.00;92373.69;5054964;28;19978;-92
2020/12/11 07:29:25;;;;;;;;;;;;;;;5.17;100.00;92376.50;5055617;28;19925;-92
2020/12/11 07:31:52;;;;;;;;;;;;;;;4.92;100.00;92373.75;5056993;28;19931;-91
2020/12/11 07:34:19;;;;;;;;;;;;;;;4.87;100.00;92381.19;5057577;28;19925;-92
2020/12/11 07:36:46;;;;;;;;;;;;;;;4.72;100.00;92379.59;5057192;28;19928;-92
2020/12/11 07:39:12;;;;;;;;;;;;;;;4.64;100.00;92379.78;5056028;28;19925;-92
2020/12/11 07:41:40;;;;;;;;;;;;;;;4.65;100.00;92381.34;5056506;28;19932;-91
2020/12/11 07:44:06;;;;;;;;;;;;;;;4.69;100.00;92380.00;5057656;28;19964;-92
2020/12/11 07:46:33;;;;;;;;;;;;;;;4.60;100.00;92389.56;5054523;28;20394;-91
2020/12/11 07:49:00;;;;;;;;;;;;;;;4.35;100.00;92384.25;5053901;28;19947;-92
2020/12/11 07:51:26;;;;;;;;;;;;;;;4.21;100.00;92381.66;5053909;28;19929;-91
2020/12/11 07:53:53;;;;;;;;;;;;;;;4.13;100.00;92377.50;5053443;28;19972;-93
2020/12/11 07:56:19;;;;;;;;;;;;;;;4.06;100.00;92386.88;5052923;28;19929;-92
2020/12/11 07:58:45;;;;;;;;;;;;;;;4.30;100.00;92382.25;5053030;28;19968;-92
2020/12/11 08:01:12;;;;;;;;;;;;;;;4.36;100.00;92383.25;5052995;28;19935;-92
2020/12/11 08:03:38;;;;;;;;;;;;;;;4.25;100.00;92387.91;5053790;28;19925;-95
2020/12/11 08:06:11;;;;;;;;;;;;;;;4.24;100.00;92383.81;5054051;28;19932;-92
2020/12/11 08:08:38;;;;;;;;;;;;;;;4.18;100.00;92383.78;5053056;28;19925;-93
2020/12/11 08:11:04;;;;;;;;;;;;;;;4.33;100.00;92393.81;5053215;28;20260;-93
2020/12/11 08:13:30;;;;;;;;;;;;;;;4.59;100.00;92390.56;5052701;28;19936;-94
2020/12/11 08:16:01;;;;;;;;;;;;;;;4.76;100.00;92390.16;5053682;28;19971;-92
2020/12/11 08:18:29;;;;;;;;;;;;;;;4.81;100.00;92400.53;5053185;28;20287;-94
2020/12/11 08:20:56;;;;;;;;;;;;;;;5.20;100.00;92393.13;5052437;28;19935;-94
2020/12/11 08:23:25;;;;;;;;;;;;;;;5.51;100.00;92393.50;5052841;28;20019;-93
2020/12/11 08:26:03;;;;;;;;;;;;;;;5.56;100.00;92393.69;5052590;28;19928;-94
2020/12/11 08:28:30;;;;;;;;;;;;;;;5.72;100.00;92392.47;5052857;28;19925;-93
2020/12/11 08:30:56;;;;;;;;;;;;;;;5.97;100.00;92404.56;5052431;28;20294;-93
2020/12/11 08:33:24;;;;;;;;;;;;;;;5.88;100.00;92406.56;5052405;28;19935;-93
2020/12/11 08:35:51;;;;;;;;;;;;;;;5.80;100.00;92399.13;5052203;28;20371;-93
2020/12/11 08:38:17;;;;;;;;;;;;;;;5.56;100.00;92401.34;5051769;28;19924;-94
2020/12/11 08:40:47;;;;;;;;;;;;;;;5.56;100.00;92401.34;5052103;28;19979;-94
2020/12/11 08:43:20;;;;;;;;;;;;;;;5.51;100.00;92399.38;5052661;28;19925;-94
2020/12/11 08:45:53;;;;;;;;;;;;;;;5.27;100.00;92406.63;5052042;28;19936;-93
2020/12/11 08:48:31;;;;;;;;;;;;;;;5.35;100.00;92410.75;5052265;28;19932;-93
2020/12/11 08:50:59;;;;;;;;;;;;;;;5.28;100.00;92404.88;5052082;28;19928;-95
2020/12/11 08:53:28;;;;;;;;;;;;;;;5.11;100.00;92399.41;5052044;28;19929;-93
2020/12/11 08:55:55;;;;;;;;;;;;;;;5.35;100.00;92400.56;5052187;28;19928;-93
2020/12/11 08:58:21;;;;;;;;;;;;;;;5.39;100.00;92390.75;5052417;28;20302;-94
2020/12/11 09:00:47;;;;;;;;;;;;;;;5.43;100.00;92386.84;5052303;28;19928;-92
2020/12/11 09:03:13;;;;;;;;;;;;;;;5.75;100.00;92387.00;5051857;28;20398;-93
2020/12/11 09:05:40;;;;;;;;;;;;;;;6.03;100.00;92385.94;5051861;28;19924;-93
2020/12/11 09:08:06;;;;;;;;;;;;;;;6.22;100.00;92378.41;5052069;28;20018;-94
2020/12/11 09:10:32;;;;;;;;;;;;;;;6.67;100.00;92377.59;5052068;28;20401;-93
2020/12/11 09:12:59;;;;;;;;;;;;;;;7.05;100.00;92363.19;5051714;28;19925;-93
2020/12/11 09:15:25;;;;;;;;;;;;;;;7.41;98.31;92373.72;5052197;28;20390;-93
2020/12/11 09:17:51;;;;;;;;;;;;;;;7.66;95.31;92370.31;5052032;28;20331;-92
2020/12/11 09:20:17;;;;;;;;;;;;;;;7.78;92.77;92367.84;5052341;28;19925;-92
2020/12/11 09:22:44;;;;;;;;;;;;;;;7.84;92.25;92362.66;5051740;28;19932;-93
2020/12/11 09:25:10;;;;;;;;;;;;;;;7.95;92.04;92366.28;5051780;28;19925;-93
2020/12/11 09:27:39;;;;;;;;;;;;;;;7.96;89.67;92361.97;5052157;28;19928;-92
2020/12/11 09:30:15;;;;;;;;;;;;;;;7.98;89.81;92359.97;5068351;28;20318;-93
2020/12/11 09:32:51;;;;;;;;;;;;;;;7.97;88.27;92355.84;5072217;28;19932;-92
2020/12/11 09:35:17;;;;;;;;;;;;;;;7.91;88.13;92343.91;5072196;28;19924;-93
2020/12/11 09:37:49;;;;;;;;;;;;;;;7.81;88.67;92341.84;5072337;28;20364;-93
2020/12/11 09:40:16;;;;;;;;;;;;;;;7.88;89.16;92343.34;5072193;28;19936;-94
2020/12/11 09:43:23;;;;;;;;;;;;;;;7.93;89.38;92345.25;5072115;28;20844;-92
2020/12/11 09:45:53;;;;;;;;;;;;;;;7.90;88.24;92340.56;5072176;28;19947;-92
2020/12/11 09:48:25;;;;;;;;;;;;;;;7.86;87.73;92339.44;5071625;28;20298;-91
2020/12/11 09:51:02;;;;;;;;;;;;;;;7.97;87.92;92335.38;5076235;28;19943;-92
2020/12/11 09:56:25;;;;;;;;;;;;;;;7.87;87.76;92335.91;5053803;28;20308;-92
2020/12/11 09:58:54;;;;;;;;;;;;;;;7.88;87.94;92332.34;5070974;28;19928;-92
2020/12/11 10:01:25;;;;;;;;;;;;;;;7.85;89.50;92332.75;5076021;28;20390;-92
2020/12/11 10:03:54;;;;;;;;;;;;;;;7.74;90.10;92324.03;5075723;28;19925;-92
2020/12/11 10:06:24;;;;;;;;;;;;;;;7.85;90.30;92323.31;5075832;28;19924;-93
2020/12/11 10:08:50;;;;;;;;;;;;;;;7.92;88.96;92325.78;5067793;28;19959;-93
2020/12/11 10:11:18;;;;;;;;;;;;;;;7.90;90.39;92320.13;5076301;28;19931;-92
2020/12/11 10:13:44;;;;;;;;;;;;;;;7.94;89.38;92315.34;5079810;28;19924;-92
2020/12/11 10:16:10;;;;;;;;;;;;;;;8.00;91.40;92314.47;5096309;28;20408;-92
2020/12/11 10:18:39;;;;;;;;;;;;;;;8.07;89.43;92311.84;5098122;28;19971;-93
2020/12/11 10:21:05;;;;;;;;;;;;;;;8.06;89.06;92315.41;5096923;28;19924;-90
2020/12/11 10:23:47;;;;;;;;;;;;;;;8.16;90.31;92320.78;5097797;28;19924;-91
2020/12/11 10:26:13;;;;;;;;;;;;;;;8.22;88.83;92316.56;5091684;28;19930;-91
2020/12/11 10:28:39;;;;;;;;;;;;;;;8.20;87.64;92310.91;5078946;28;19924;-92
2020/12/11 10:31:05;;;;;;;;;;;;;;;8.18;89.37;92307.78;5078338;28;20378;-91
2020/12/11 10:33:31;;;;;;;;;;;;;;;8.11;89.93;92306.06;5078459;28;19928;-91
2020/12/11 10:35:58;;;;;;;;;;;;;;;8.22;89.50;92302.00;5078252;28;19928;-91
2020/12/11 10:38:26;;;;;;;;;;;;;;;8.22;87.22;92296.91;5077039;28;19930;-92
2020/12/11 10:40:52;;;;;;;;;;;;;;;8.20;88.31;92290.44;5077569;28;20049;-91
2020/12/11 10:43:18;;;;;;;;;;;;;;;8.26;89.52;92294.69;5077577;28;19993;-91
2020/12/11 10:45:45;;;;;;;;;;;;;;;8.29;88.53;92286.59;5078700;28;19970;-92
2020/12/11 10:48:11;;;;;;;;;;;;;;;8.39;88.26;92291.94;5077493;28;19924;-91
2020/12/11 10:50:37;;;;;;;;;;;;;;;8.40;87.91;92290.16;5077544;28;19970;-92
2020/12/11 10:53:04;;;;;;;;;;;;;;;8.48;85.55;92289.06;5076913;28;19924;-91
2020/12/11 10:55:34;;;;;;;;;;;;;;;8.55;84.75;92287.22;5085900;28;19931;-92
2020/12/11 10:58:00;;;;;;;;;;;;;;;8.58;83.64;92288.56;5085559;28;19924;-91
2020/12/11 11:00:26;;;;;;;;;;;;;;;8.57;83.29;92287.78;5076599;28;19931;-91
2020/12/11 11:02:52;;;;;;;;;;;;;;;8.62;83.42;92279.44;5084973;28;20007;-90
2020/12/11 11:05:18;;;;;;;;;;;;;;;8.49;83.08;92282.94;5097859;28;19970;-91
2020/12/11 11:07:44;;;;;;;;;;;;;;;8.50;83.40;92276.81;5098066;28;19924;-90
2020/12/11 11:10:21;;;;;;;;;;;;;;;8.41;81.03;92282.28;5096317;28;20386;-90
2020/12/11 11:12:51;;;;;;;;;;;;;;;8.38;83.16;92285.25;5096823;28;19931;-91
2020/12/11 11:15:35;;;;;;;;;;;;;;;8.40;82.83;92278.16;5080754;28;19924;-91
2020/12/11 11:23:39;;;;;;;;;;;;;;;8.28;83.08;92274.75;5073641;28;19955;-91
2020/12/11 11:26:16;;;;;;;;;;;;;;;8.29;83.49;92266.13;5075789;28;19924;-91
2020/12/11 11:28:42;;;;;;;;;;;;;;;8.28;84.38;92265.31;5076464;28;20043;-92
2020/12/11 11:31:10;;;;;;;;;;;;;;;8.21;82.74;92256.97;5076310;28;19970;-90
2020/12/11 11:33:36;;;;;;;;;;;;;;;8.14;82.38;92254.50;5076086;28;20321;-91
2020/12/11 11:36:02;;;;;;;;;;;;;;;8.18;81.87;92251.50;5074960;28;19964;-91
2020/12/11 11:38:28;;;;;;;;;;;;;;;8.21;83.21;92243.38;5076087;28;20017;-91
2020/12/11 11:40:54;;;;;;;;;;;;;;;8.27;82.19;92247.63;5075578;28;20394;-91
2020/12/11 11:43:27;;;;;;;;;;;;;;;8.23;82.98;92252.41;5075274;28;19924;-90
2020/12/11 11:45:53;;;;;;;;;;;;;;;8.08;82.39;92252.03;5074548;28;20378;-92
2020/12/11 11:48:19;;;;;;;;;;;;;;;8.14;81.90;92249.38;5074993;28;19941;-92
2020/12/11 11:50:52;;;;;;;;;;;;;;;8.16;83.46;92246.59;5074391;28;20429;-91
2020/12/11 11:53:21;;;;;;;;;;;;;;;8.22;82.05;92239.81;5074296;28;20383;-91
2020/12/11 11:55:47;;;;;;;;;;;;;;;8.35;80.15;92234.53;5075758;28;19934;-91
2020/12/11 11:58:13;;;;;;;;;;;;;;;8.41;81.55;92230.31;5074735;28;19925;-91
2020/12/11 12:00:40;;;;;;;;;;;;;;;8.54;79.65;92226.78;5075147;28;19925;-90
2020/12/11 12:03:06;;;;;;;;;;;;;;;8.58;79.17;92227.91;5082764;28;20371;-91
2020/12/11 12:05:33;;;;;;;;;;;;;;;8.38;79.19;92225.63;5095279;28;19975;-90
2020/12/11 12:07:59;;;;;;;;;;;;;;;8.43;78.04;92225.75;5095754;28;19932;-90
2020/12/11 12:10:25;;;;;;;;;;;;;;;8.37;79.15;92224.84;5094129;28;20378;-90
2020/12/11 12:12:51;;;;;;;;;;;;;;;8.28;76.99;92221.81;5094809;28;19924;-91
2020/12/11 12:15:20;;;;;;;;;;;;;;;8.38;78.02;92212.84;5095362;28;19950;-91
2020/12/11 12:17:53;;;;;;;;;;;;;;;8.46;77.85;92217.63;5095327;28;20321;-90
2020/12/11 12:20:37;;;;;;;;;;;;;;;8.53;77.48;92210.63;5096069;28;20329;-89
2020/12/11 12:28:45;;;;;;;;;;;;;;;8.72;75.20;92204.66;5093173;28;19931;-91
2020/12/11 12:31:16;;;;;;;;;;;;;;;8.72;73.96;92202.09;5095235;28;19924;-91
2020/12/11 12:45:08;;;;;;;;;;;;;;;8.73;75.10;92211.31;5012915;28;20408;-90
2020/12/11 12:47:36;;;;;;;;;;;;;;;8.80;75.10;92202.53;5012894;28;19926;-92
2020/12/11 12:50:03;;;;;;;;;;;;;;;8.88;75.04;92205.78;5038902;28;19924;-92
2020/12/11 12:52:29;;;;;;;;;;;;;;;8.88;75.43;92206.53;5072385;28;20375;-91
2020/12/11 12:54:55;;;;;;;;;;;;;;;8.90;74.90;92204.56;5072439;28;20264;-91
2020/12/11 12:57:25;;;;;;;;;;;;;;;8.98;74.54;92208.53;5072326;28;20390;-91
2020/12/11 12:59:55;;;;;;;;;;;;;;;8.94;74.00;92204.88;5072366;28;19935;-91
2020/12/11 13:02:37;;;;;;;;;;;;;;;8.96;73.98;92197.72;5072188;28;19931;-91
2020/12/11 13:05:07;;;;;;;;;;;;;;;9.01;72.28;92200.41;5072219;28;19983;-93
2020/12/11 13:07:33;;;;;;;;;;;;;;;9.04;74.21;92191.50;5072072;28;21648;-91
2020/12/11 13:09:59;;;;;;;;;;;;;;;9.02;72.51;92185.81;5072210;28;19974;-91
2020/12/11 13:12:26;;;;;;;;;;;;;;;9.06;71.12;92189.47;5072055;28;19959;-92
2020/12/11 13:14:52;;;;;;;;;;;;;;;9.05;71.12;92193.84;5071320;28;20389;-91
2020/12/11 13:17:18;;;;;;;;;;;;;;;9.09;70.92;92184.69;5082293;28;20388;-91
2020/12/11 13:19:44;;;;;;;;;;;;;;;9.00;71.37;92190.38;5088097;28;20033;-93